createdAt,value
2018-06-17T04:22:02.398Z,98011.73
2018-06-17T04:23:06.432Z,98007.36
2018-06-17T04:24:10.360Z,98012.09
2018-06-17T04:25:14.218Z,98012.64
2018-06-17T04:26:18.069Z,98014.27
2018-06-17T14:45:57.868Z,98031.95
2018-06-17T14:47:06.831Z,98134.98
2018-06-17T14:48:17.238Z,98129.38
2018-06-17T14:49:26.258Z,98135.30
2018-06-17T14:50:36.745Z,98130.84
2018-06-17T14:51:45.493Z,98134.47
2018-06-17T14:52:57.974Z,98134.92
2018-06-17T14:54:06.491Z,98132.45
2018-06-17T14:55:12.234Z,98132.27
2018-06-17T14:56:18.037Z,98125.00
2018-06-17T14:57:23.335Z,98124.92
2018-06-17T14:58:30.276Z,98115.92
2018-06-17T14:59:34.627Z,98122.89
2018-06-17T15:00:39.073Z,98127.69
2018-06-17T15:01:43.917Z,98122.14
2018-06-17T15:02:48.768Z,98118.60
2018-06-17T15:03:53.487Z,98117.55
2018-06-17T15:04:57.966Z,98121.87
2018-06-17T15:06:01.898Z,98122.23
2018-06-17T15:07:06.427Z,98123.56
2018-06-17T15:08:10.359Z,98117.16
2018-06-17T15:09:14.223Z,98119.08
2018-06-17T15:10:18.057Z,98124.23
2018-06-17T15:11:23.698Z,98123.84
2018-06-17T15:12:29.535Z,98123.84
2018-06-17T15:13:35.219Z,98122.89
2018-06-17T15:14:39.075Z,98122.89
2018-06-17T15:15:42.912Z,98126.80
2018-06-17T15:16:47.499Z,98130.33
2018-06-17T15:17:53.666Z,98133.98
2018-06-17T15:18:58.103Z,98138.34
2018-06-17T15:20:02.496Z,98139.33
2018-06-17T15:21:06.261Z,98140.66
2018-06-17T15:22:11.712Z,98142.00
2018-06-17T15:23:15.607Z,98140.94
2018-06-17T15:24:20.433Z,98135.48
2018-06-17T15:25:26.037Z,98134.73
2018-06-17T15:26:30.418Z,98132.42
2018-06-17T15:27:35.195Z,98131.08
2018-06-17T15:28:43.684Z,98131.20
2018-06-17T15:29:47.888Z,98127.46
2018-06-17T15:30:52.555Z,98024.77
2018-06-17T15:32:01.165Z,98138.16
2018-06-17T15:33:10.209Z,98139.09
2018-06-17T15:34:18.834Z,98137.29
2018-06-17T15:35:27.603Z,98138.16
2018-06-17T15:36:36.316Z,98141.77
2018-06-17T15:37:45.066Z,98143.89
2018-06-17T15:38:51.789Z,98147.52
2018-06-17T15:39:59.332Z,98147.04
2018-06-17T15:41:09.656Z,98144.09
2018-06-17T15:42:17.325Z,98149.43
2018-06-17T15:43:27.628Z,98150.66
2018-06-17T15:44:31.502Z,98144.84
2018-06-17T15:45:36.845Z,98146.17
2018-06-17T15:46:47.202Z,98151.80
2018-06-17T15:47:52.111Z,98147.31
2018-06-17T15:49:00.413Z,98150.10
2018-06-17T15:50:04.248Z,98144.64
2018-06-17T15:51:08.105Z,98144.37
2018-06-17T15:52:12.602Z,98146.64
2018-06-17T15:53:17.368Z,98143.97
2018-06-17T15:54:21.200Z,98147.70
2018-06-17T15:55:26.376Z,98144.67
2018-06-17T15:56:33.164Z,98140.94
2018-06-17T15:57:37.944Z,98139.88
2018-06-17T15:58:46.903Z,98138.91
2018-06-17T15:59:56.269Z,98022.17
2018-06-17T16:01:01.449Z,98140.63
2018-06-17T16:02:05.605Z,98041.72
2018-06-17T16:03:09.465Z,98140.24
2018-06-17T16:04:15.123Z,98143.31
2018-06-17T16:05:21.656Z,98034.96
2018-06-17T16:06:27.575Z,98136.23
2018-06-17T16:07:31.385Z,98133.56
2018-06-17T16:08:36.192Z,98014.38
2018-06-17T16:09:40.622Z,98131.95
2018-06-17T16:10:46.920Z,98143.11
2018-06-17T16:11:57.905Z,98140.83
2018-06-17T16:13:06.603Z,98141.77
2018-06-17T16:14:15.919Z,98142.75
2018-06-17T16:15:25.469Z,98148.77
2018-06-17T16:16:35.223Z,98142.91
2018-06-17T16:17:48.915Z,98145.59
2018-06-17T16:18:58.691Z,98142.91
2018-06-17T16:20:07.614Z,98143.70
2018-06-17T16:21:13.593Z,98138.91
2018-06-17T16:22:19.249Z,98141.39
2018-06-17T16:23:24.624Z,98145.03
2018-06-17T16:24:30.663Z,98134.06
2018-06-17T16:25:35.082Z,98135.01
2018-06-17T16:26:38.969Z,98143.31
2018-06-17T16:27:42.844Z,98146.17
2018-06-17T16:28:48.728Z,98153.72
2018-06-17T16:29:54.093Z,98151.33
2018-06-17T16:30:59.234Z,98142.72
2018-06-17T16:32:05.481Z,98139.11
2018-06-17T16:33:11.417Z,98145.12
2018-06-17T16:34:15.600Z,98141.77
2018-06-17T16:35:19.674Z,98145.39
2018-06-17T16:36:23.531Z,98146.18
2018-06-17T16:37:28.678Z,98141.39
2018-06-17T16:38:37.478Z,98148.06
2018-06-17T16:39:41.320Z,98146.73
2018-06-17T16:40:45.715Z,98148.74
2018-06-17T16:41:49.511Z,98146.92
2018-06-17T16:42:56.362Z,98144.64
2018-06-17T16:44:00.526Z,98157.62
2018-06-17T16:45:06.283Z,98157.63
2018-06-17T16:46:10.106Z,98158.57
2018-06-17T16:47:14.231Z,98162.22
2018-06-17T16:48:18.785Z,98162.41
2018-06-17T16:49:23.243Z,98168.70
2018-06-17T16:50:30.243Z,98168.70
2018-06-17T16:51:39.771Z,98175.78
2018-06-17T16:52:50.050Z,98177.95
2018-06-17T16:53:58.790Z,98178.92
2018-06-17T16:55:06.220Z,98182.55
2018-06-17T16:56:14.912Z,98178.45
2018-06-17T16:57:23.943Z,98181.48
2018-06-17T16:58:33.115Z,98188.75
2018-06-17T16:59:44.079Z,98063.28
2018-06-17T17:00:48.719Z,98186.36
2018-06-17T17:01:53.501Z,98184.74
2018-06-17T17:02:58.547Z,98192.77
2018-06-17T17:04:03.092Z,98191.42
2018-06-17T17:05:07.930Z,98193.16
2018-06-17T17:06:11.722Z,98190.84
2018-06-17T17:07:16.642Z,98187.02
2018-06-17T17:08:20.527Z,98188.86
2018-06-17T17:09:24.364Z,98199.05
2018-06-17T17:10:29.061Z,98199.44
2018-06-17T17:11:35.713Z,98205.27
2018-06-17T17:12:39.776Z,98097.91
2018-06-17T17:13:43.668Z,98200.78
2018-06-17T17:14:47.508Z,98199.55
2018-06-17T17:15:52.195Z,98208.41
2018-06-17T17:16:57.943Z,98203.45
2018-06-17T17:18:01.729Z,98127.77
2018-06-17T17:19:05.584Z,98208.69
2018-06-17T17:20:09.393Z,98211.00
2018-06-17T17:21:13.239Z,98082.74
2018-06-17T17:22:17.077Z,98214.43
2018-06-17T17:23:21.328Z,98217.50
2018-06-17T17:24:25.679Z,98213.56
2018-06-17T17:25:30.531Z,98217.10
2018-06-17T17:26:35.386Z,98217.97
2018-06-17T17:27:39.719Z,98223.70
2018-06-17T17:28:45.023Z,98220.05
2018-06-17T17:29:50.688Z,98217.02
2018-06-17T17:30:54.668Z,98194.67
2018-06-17T17:32:05.261Z,98218.36
2018-06-17T17:33:14.073Z,98220.25
2018-06-17T17:34:23.530Z,98221.50
2018-06-17T17:35:33.111Z,98231.73
2018-06-17T17:36:41.879Z,98224.18
2018-06-17T17:37:50.675Z,98240.69
2018-06-17T17:38:59.918Z,98222.56
2018-06-17T17:40:08.669Z,98070.72
2018-06-17T17:41:13.593Z,98236.39
2018-06-17T17:42:22.636Z,98237.08
2018-06-17T17:43:27.558Z,98232.67
2018-06-17T17:44:37.947Z,98244.70
2018-06-17T17:47:50.388Z,98237.83
2018-06-17T17:48:57.777Z,98246.34
2018-06-17T17:50:03.238Z,98251.17
2018-06-17T17:51:07.992Z,98244.50
2018-06-17T17:52:13.098Z,98254.72
2018-06-17T17:53:17.056Z,98106.59
2018-06-17T17:54:21.637Z,98242.97
2018-06-17T17:55:26.373Z,98237.62
2018-06-17T17:56:31.170Z,98237.27
2018-06-17T17:57:35.538Z,98247.37
2018-06-17T17:58:41.488Z,98242.42
2018-06-17T17:59:47.623Z,98241.91
2018-06-17T18:00:52.384Z,98244.70
2018-06-17T18:01:56.208Z,98249.58
2018-06-17T18:03:00.622Z,98253.47
2018-06-17T18:04:04.495Z,98249.46
2018-06-17T18:05:08.329Z,98254.73
2018-06-17T18:06:15.282Z,98251.27
2018-06-17T18:07:21.173Z,98259.58
2018-06-17T18:08:25.517Z,98257.02
2018-06-17T18:09:29.604Z,98257.88
2018-06-17T18:10:34.378Z,98257.88
2018-06-17T18:11:39.287Z,98258.23
2018-06-17T18:12:43.121Z,98256.43
2018-06-17T18:13:47.277Z,98255.56
2018-06-17T18:20:21.689Z,98132.70
2018-06-17T18:21:29.641Z,98258.14
2018-06-17T18:22:34.925Z,98253.30
2018-06-17T18:23:38.854Z,98255.39
2018-06-17T18:24:46.473Z,98250.44
2018-06-17T18:25:55.471Z,98255.00
2018-06-17T18:27:05.401Z,98253.59
2018-06-17T18:28:17.074Z,98264.28
2018-06-17T18:29:26.366Z,98252.72
2018-06-17T18:30:36.093Z,98247.37
2018-06-17T18:31:45.395Z,98254.05
2018-06-17T18:32:55.895Z,98254.05
2018-06-17T18:34:04.632Z,98255.39
2018-06-17T18:35:14.624Z,98258.46
2018-06-17T18:36:18.731Z,98256.62
2018-06-17T18:37:23.324Z,98145.68
2018-06-17T18:38:27.773Z,98257.48
2018-06-17T18:39:32.821Z,98254.81
2018-06-17T18:40:36.643Z,98261.49
2018-06-17T18:41:40.598Z,98120.77
2018-06-17T18:42:45.273Z,98256.15
2018-06-17T18:43:49.758Z,98259.69
2018-06-17T18:44:53.586Z,98257.02
2018-06-17T20:27:13.751Z,98307.08
2018-06-17T20:28:18.178Z,98310.63
2018-06-17T20:29:23.016Z,98309.53
2018-06-17T20:30:27.413Z,98311.52
2018-06-17T20:31:32.667Z,98308.70
2018-06-17T20:32:41.818Z,98308.23
2018-06-17T20:33:50.587Z,98309.68
2018-06-17T20:34:59.327Z,98311.20
2018-06-17T20:36:08.058Z,98313.22
2018-06-17T20:37:17.441Z,98313.03
2018-06-17T20:40:27.338Z,98317.63
2018-06-17T20:41:37.037Z,98317.25
2018-06-17T20:42:46.011Z,98315.05
2018-06-17T20:45:04.837Z,98318.77
2018-06-17T20:46:10.439Z,98321.84
2018-06-17T20:47:16.241Z,98319.16
2018-06-17T20:48:22.030Z,98316.78
2018-06-17T20:49:26.472Z,98323.46
2018-06-17T20:50:30.331Z,98327.00
2018-06-17T20:51:34.618Z,98320.86
2018-06-17T20:52:38.526Z,98322.99
2018-06-17T20:53:43.924Z,98323.36
2018-06-17T20:54:47.746Z,98329.48
2018-06-17T20:55:53.233Z,98330.03
2018-06-17T20:56:58.438Z,98215.48
2018-06-17T20:58:04.598Z,98334.05
2018-06-17T20:59:08.427Z,98328.23
2018-06-17T21:00:13.460Z,98327.36
2018-06-17T21:01:17.944Z,98331.95
2018-06-17T21:02:21.750Z,98203.25
2018-06-17T21:03:25.570Z,98330.72
2018-06-17T21:04:31.243Z,98330.61
2018-06-17T21:05:36.316Z,98331.48
2018-06-17T21:06:41.572Z,98343.11
2018-06-17T21:07:46.491Z,98331.48
2018-06-17T21:08:54.347Z,98337.30
2018-06-17T21:10:00.438Z,98335.56
2018-06-17T21:11:09.847Z,98337.88
2018-06-17T21:12:13.937Z,98339.22
2018-06-17T21:13:17.962Z,98336.83
2018-06-17T21:14:21.780Z,98341.41
2018-06-17T21:15:26.426Z,98342.57
2018-06-17T21:16:31.259Z,98343.04
2018-06-17T21:17:38.937Z,98339.39
2018-06-17T21:18:48.559Z,98341.99
2018-06-17T21:19:58.032Z,98335.67
2018-06-17T21:21:06.770Z,98339.61
2018-06-17T21:22:15.483Z,98341.02
2018-06-17T21:23:26.303Z,98344.55
